sensor_id;sensor_type;location;lat;lon;timestamp;temperature;humidity
13970;DHT22;7057;49.984;8.404;2022-08-02T00:00:03;21.30;99.90
13970;DHT22;7057;49.984;8.404;2022-08-02T00:02:30;21.30;99.90
13970;DHT22;7057;49.984;8.404;2022-08-02T00:04:57;21.20;99.90
13970;DHT22;7057;49.984;8.404;2022-08-02T00:07:26;21.10;99.90
13970;DHT22;7057;49.984;8.404;2022-08-02T00:09:53;21.10;99.90
13970;DHT22;7057;49.984;8.404;2022-08-02T00:12:20;21.10;99.90
13970;DHT22;7057;49.984;8.404;2022-08-02T00:14:47;20.90;99.90
13970;DHT22;7057;49.984;8.404;2022-08-02T00:17:15;21.00;99.90
13970;DHT22;7057;49.984;8.404;2022-08-02T00:19:42;21.00;99.90
13970;DHT22;7057;49.984;8.404;2022-08-02T00:22:09;20.90;99.90
13970;DHT22;7057;49.984;8.404;2022-08-02T00:24:38;20.90;99.90
13970;DHT22;7057;49.984;8.404;2022-08-02T00:27:05;20.90;99.90
13970;DHT22;7057;49.984;8.404;2022-08-02T00:29:33;20.80;99.90
13970;DHT22;7057;49.984;8.404;2022-08-02T00:32:00;20.80;99.90
13970;DHT22;7057;49.984;8.404;2022-08-02T00:34:28;20.80;99.90
13970;DHT22;7057;49.984;8.404;2022-08-02T00:36:55;20.80;99.90
13970;DHT22;7057;49.984;8.404;2022-08-02T00:39:22;20.70;99.90
13970;DHT22;7057;49.984;8.404;2022-08-02T00:41:51;20.70;99.90
13970;DHT22;7057;49.984;8.404;2022-08-02T00:44:20;20.70;99.90
13970;DHT22;7057;49.984;8.404;2022-08-02T00:46:47;20.60;99.90
13970;DHT22;7057;49.984;8.404;2022-08-02T00:49:15;20.70;99.90
13970;DHT22;7057;49.984;8.404;2022-08-02T00:51:42;20.70;99.90
13970;DHT22;7057;49.984;8.404;2022-08-02T00:54:09;20.70;99.90
13970;DHT22;7057;49.984;8.404;2022-08-02T00:56:36;20.60;99.90
13970;DHT22;7057;49.984;8.404;2022-08-02T00:59:05;20.60;99.90
13970;DHT22;7057;49.984;8.404;2022-08-02T01:01:32;20.60;99.90
13970;DHT22;7057;49.984;8.404;2022-08-02T01:04:06;20.70;99.90
13970;DHT22;7057;49.984;8.404;2022-08-02T01:06:35;20.70;99.90
13970;DHT22;7057;49.984;8.404;2022-08-02T01:09:04;20.70;99.90
13970;DHT22;7057;49.984;8.404;2022-08-02T01:11:32;20.70;99.90
13970;DHT22;7057;49.984;8.404;2022-08-02T01:14:03;20.50;99.90
13970;DHT22;7057;49.984;8.404;2022-08-02T01:16:37;20.50;99.90
13970;DHT22;7057;49.984;8.404;2022-08-02T01:19:13;20.40;99.90
13970;DHT22;7057;49.984;8.404;2022-08-02T01:21:53;20.30;99.90
13970;DHT22;7057;49.984;8.404;2022-08-02T01:24:40;20.20;99.90
13970;DHT22;7057;49.984;8.404;2022-08-02T01:27:22;20.20;99.90
13970;DHT22;7057;49.984;8.404;2022-08-02T01:29:58;20.20;99.90
13970;DHT22;7057;49.984;8.404;2022-08-02T01:32:30;20.10;99.90
13970;DHT22;7057;49.984;8.404;2022-08-02T01:35:02;20.00;99.90
13970;DHT22;7057;49.984;8.404;2022-08-02T01:37:39;19.90;99.90
13970;DHT22;7057;49.984;8.404;2022-08-02T01:40:10;19.80;99.90
13970;DHT22;7057;49.984;8.404;2022-08-02T01:42:44;19.80;99.90
13970;DHT22;7057;49.984;8.404;2022-08-02T01:45:14;19.80;99.90
13970;DHT22;7057;49.984;8.404;2022-08-02T01:47:42;19.70;99.90
13970;DHT22;7057;49.984;8.404;2022-08-02T01:50:13;19.60;99.90
13970;DHT22;7057;49.984;8.404;2022-08-02T01:52:46;19.50;99.90
13970;DHT22;7057;49.984;8.404;2022-08-02T01:55:18;19.20;99.90
13970;DHT22;7057;49.984;8.404;2022-08-02T01:57:49;19.20;99.90
13970;DHT22;7057;49.984;8.404;2022-08-02T02:00:20;19.00;99.90
13970;DHT22;7057;49.984;8.404;2022-08-02T02:02:49;19.00;99.90
13970;DHT22;7057;49.984;8.404;2022-08-02T02:05:20;19.00;99.90
13970;DHT22;7057;49.984;8.404;2022-08-02T02:07:51;19.00;99.90
13970;DHT22;7057;49.984;8.404;2022-08-02T02:10:25;19.00;99.90
13970;DHT22;7057;49.984;8.404;2022-08-02T02:12:54;19.00;99.90
13970;DHT22;7057;49.984;8.404;2022-08-02T02:15:24;19.00;99.90
13970;DHT22;7057;49.984;8.404;2022-08-02T02:17:52;19.00;99.90
13970;DHT22;7057;49.984;8.404;2022-08-02T02:20:22;19.00;99.90
13970;DHT22;7057;49.984;8.404;2022-08-02T02:22:49;19.00;99.90
13970;DHT22;7057;49.984;8.404;2022-08-02T02:25:19;19.00;99.90
13970;DHT22;7057;49.984;8.404;2022-08-02T02:27:51;19.00;99.90
13970;DHT22;7057;49.984;8.404;2022-08-02T02:30:22;19.00;99.90
13970;DHT22;7057;49.984;8.404;2022-08-02T02:32:53;18.90;99.90
13970;DHT22;7057;49.984;8.404;2022-08-02T02:35:22;18.90;99.90
13970;DHT22;7057;49.984;8.404;2022-08-02T02:37:51;18.80;99.90
13970;DHT22;7057;49.984;8.404;2022-08-02T02:40:22;18.80;99.90
13970;DHT22;7057;49.984;8.404;2022-08-02T02:42:50;18.80;99.90
13970;DHT22;7057;49.984;8.404;2022-08-02T02:45:19;18.80;99.90
13970;DHT22;7057;49.984;8.404;2022-08-02T02:47:49;18.80;99.90
13970;DHT22;7057;49.984;8.404;2022-08-02T02:50:17;18.80;99.90
13970;DHT22;7057;49.984;8.404;2022-08-02T02:52:45;18.90;99.90
13970;DHT22;7057;49.984;8.404;2022-08-02T02:55:13;18.90;99.90
13970;DHT22;7057;49.984;8.404;2022-08-02T02:57:41;18.90;99.90
13970;DHT22;7057;49.984;8.404;2022-08-02T03:00:11;19.00;99.90
13970;DHT22;7057;49.984;8.404;2022-08-02T03:02:39;18.90;99.90
13970;DHT22;7057;49.984;8.404;2022-08-02T03:05:10;19.00;99.90
13970;DHT22;7057;49.984;8.404;2022-08-02T03:07:38;19.00;99.90
13970;DHT22;7057;49.984;8.404;2022-08-02T03:10:06;19.00;99.90
13970;DHT22;7057;49.984;8.404;2022-08-02T03:12:34;19.00;99.90
13970;DHT22;7057;49.984;8.404;2022-08-02T03:15:05;19.00;99.90
13970;DHT22;7057;49.984;8.404;2022-08-02T03:17:40;19.10;99.90
13970;DHT22;7057;49.984;8.404;2022-08-02T03:20:11;19.10;99.90
13970;DHT22;7057;49.984;8.404;2022-08-02T03:22:39;19.20;99.90
13970;DHT22;7057;49.984;8.404;2022-08-02T03:25:07;19.20;99.90
13970;DHT22;7057;49.984;8.404;2022-08-02T03:27:35;19.20;99.90
13970;DHT22;7057;49.984;8.404;2022-08-02T03:30:04;19.20;99.90
13970;DHT22;7057;49.984;8.404;2022-08-02T03:32:32;19.20;99.90
13970;DHT22;7057;49.984;8.404;2022-08-02T03:34:59;19.00;99.90
13970;DHT22;7057;49.984;8.404;2022-08-02T03:37:28;19.00;99.90
13970;DHT22;7057;49.984;8.404;2022-08-02T03:39:56;19.00;99.90
13970;DHT22;7057;49.984;8.404;2022-08-02T03:42:24;19.00;99.90
13970;DHT22;7057;49.984;8.404;2022-08-02T03:44:53;19.00;99.90
13970;DHT22;7057;49.984;8.404;2022-08-02T03:47:21;19.10;99.90
13970;DHT22;7057;49.984;8.404;2022-08-02T03:49:49;19.10;99.90
13970;DHT22;7057;49.984;8.404;2022-08-02T03:52:17;18.90;99.90
13970;DHT22;7057;49.984;8.404;2022-08-02T03:54:46;18.80;99.90
13970;DHT22;7057;49.984;8.404;2022-08-02T03:57:13;18.90;99.90
13970;DHT22;7057;49.984;8.404;2022-08-02T03:59:42;18.80;99.90
13970;DHT22;7057;49.984;8.404;2022-08-02T04:02:09;18.90;99.90
13970;DHT22;7057;49.984;8.404;2022-08-02T04:04:37;18.80;99.90
13970;DHT22;7057;49.984;8.404;2022-08-02T04:07:04;18.80;99.90
13970;DHT22;7057;49.984;8.404;2022-08-02T04:09:32;18.80;99.90
13970;DHT22;7057;49.984;8.404;2022-08-02T04:12:00;18.80;99.90
13970;DHT22;7057;49.984;8.404;2022-08-02T04:14:27;18.80;99.90
13970;DHT22;7057;49.984;8.404;2022-08-02T04:16:57;18.80;99.90
13970;DHT22;7057;49.984;8.404;2022-08-02T04:19:31;18.80;99.90
13970;DHT22;7057;49.984;8.404;2022-08-02T04:22:01;18.80;99.90
13970;DHT22;7057;49.984;8.404;2022-08-02T04:24:37;18.90;99.90
13970;DHT22;7057;49.984;8.404;2022-08-02T04:27:07;18.80;99.90
13970;DHT22;7057;49.984;8.404;2022-08-02T04:29:36;18.80;99.90
13970;DHT22;7057;49.984;8.404;2022-08-02T04:32:04;18.80;99.90
13970;DHT22;7057;49.984;8.404;2022-08-02T04:34:32;18.80;99.90
13970;DHT22;7057;49.984;8.404;2022-08-02T04:37:00;18.80;99.90
13970;DHT22;7057;49.984;8.404;2022-08-02T04:39:27;18.70;99.90
13970;DHT22;7057;49.984;8.404;2022-08-02T04:41:54;18.70;99.90
13970;DHT22;7057;49.984;8.404;2022-08-02T04:44:23;18.70;99.90
13970;DHT22;7057;49.984;8.404;2022-08-02T04:46:51;18.80;99.90
13970;DHT22;7057;49.984;8.404;2022-08-02T04:49:19;18.80;99.90
13970;DHT22;7057;49.984;8.404;2022-08-02T04:51:46;18.80;99.90
13970;DHT22;7057;49.984;8.404;2022-08-02T04:54:13;18.90;99.90
13970;DHT22;7057;49.984;8.404;2022-08-02T04:56:40;19.00;99.90
13970;DHT22;7057;49.984;8.404;2022-08-02T04:59:08;19.10;99.90
13970;DHT22;7057;49.984;8.404;2022-08-02T05:01:37;19.10;99.90
13970;DHT22;7057;49.984;8.404;2022-08-02T05:04:07;19.20;99.90
13970;DHT22;7057;49.984;8.404;2022-08-02T05:06:34;19.40;99.90
13970;DHT22;7057;49.984;8.404;2022-08-02T05:09:01;19.50;99.90
13970;DHT22;7057;49.984;8.404;2022-08-02T05:11:28;19.60;99.90
13970;DHT22;7057;49.984;8.404;2022-08-02T05:13:55;19.60;99.90
13970;DHT22;7057;49.984;8.404;2022-08-02T05:16:22;19.60;99.90
13970;DHT22;7057;49.984;8.404;2022-08-02T05:18:52;19.60;99.90
13970;DHT22;7057;49.984;8.404;2022-08-02T05:21:19;19.60;99.90
13970;DHT22;7057;49.984;8.404;2022-08-02T05:23:46;19.60;99.90
13970;DHT22;7057;49.984;8.404;2022-08-02T05:26:13;19.70;99.90
13970;DHT22;7057;49.984;8.404;2022-08-02T05:28:40;19.70;99.90
13970;DHT22;7057;49.984;8.404;2022-08-02T05:31:07;19.80;99.90
13970;DHT22;7057;49.984;8.404;2022-08-02T05:33:34;19.80;99.90
13970;DHT22;7057;49.984;8.404;2022-08-02T05:36:03;19.90;99.90
13970;DHT22;7057;49.984;8.404;2022-08-02T05:38:30;20.00;99.90
13970;DHT22;7057;49.984;8.404;2022-08-02T05:40:57;20.00;99.90
13970;DHT22;7057;49.984;8.404;2022-08-02T05:43:25;20.00;99.90
13970;DHT22;7057;49.984;8.404;2022-08-02T05:45:52;20.10;99.90
13970;DHT22;7057;49.984;8.404;2022-08-02T05:48:20;20.10;99.90
13970;DHT22;7057;49.984;8.404;2022-08-02T05:50:51;20.30;99.90
13970;DHT22;7057;49.984;8.404;2022-08-02T05:53:26;20.50;99.90
13970;DHT22;7057;49.984;8.404;2022-08-02T05:56:02;20.50;99.90
13970;DHT22;7057;49.984;8.404;2022-08-02T05:58:38;20.70;99.90
13970;DHT22;7057;49.984;8.404;2022-08-02T06:01:08;20.80;99.90
13970;DHT22;7057;49.984;8.404;2022-08-02T06:03:38;20.90;99.90
13970;DHT22;7057;49.984;8.404;2022-08-02T06:06:11;21.00;99.90
13970;DHT22;7057;49.984;8.404;2022-08-02T06:08:42;21.10;99.90
13970;DHT22;7057;49.984;8.404;2022-08-02T06:11:12;21.20;99.90
13970;DHT22;7057;49.984;8.404;2022-08-02T06:13:40;21.30;99.90
13970;DHT22;7057;49.984;8.404;2022-08-02T06:16:08;21.40;99.90
13970;DHT22;7057;49.984;8.404;2022-08-02T06:18:35;21.40;99.90
13970;DHT22;7057;49.984;8.404;2022-08-02T06:21:04;21.20;99.90
13970;DHT22;7057;49.984;8.404;2022-08-02T06:23:33;21.20;99.90
13970;DHT22;7057;49.984;8.404;2022-08-02T06:26:05;21.30;99.90
13970;DHT22;7057;49.984;8.404;2022-08-02T06:28:36;21.30;99.90
13970;DHT22;7057;49.984;8.404;2022-08-02T06:31:04;21.40;99.90
13970;DHT22;7057;49.984;8.404;2022-08-02T06:33:32;21.50;99.90
13970;DHT22;7057;49.984;8.404;2022-08-02T06:36:02;21.60;99.90
13970;DHT22;7057;49.984;8.404;2022-08-02T06:38:34;21.60;99.90
13970;DHT22;7057;49.984;8.404;2022-08-02T06:41:08;21.60;99.90
13970;DHT22;7057;49.984;8.404;2022-08-02T06:43:42;21.60;99.90
13970;DHT22;7057;49.984;8.404;2022-08-02T06:46:10;21.60;99.90
13970;DHT22;7057;49.984;8.404;2022-08-02T06:48:38;21.60;99.90
13970;DHT22;7057;49.984;8.404;2022-08-02T06:51:05;21.70;99.90
13970;DHT22;7057;49.984;8.404;2022-08-02T06:53:32;21.80;99.90
13970;DHT22;7057;49.984;8.404;2022-08-02T06:55:59;21.90;99.90
13970;DHT22;7057;49.984;8.404;2022-08-02T06:58:28;22.00;99.90
13970;DHT22;7057;49.984;8.404;2022-08-02T07:00:55;22.10;99.90
13970;DHT22;7057;49.984;8.404;2022-08-02T07:03:22;22.10;99.90
13970;DHT22;7057;49.984;8.404;2022-08-02T07:05:50;22.20;99.90
13970;DHT22;7057;49.984;8.404;2022-08-02T07:08:18;22.40;99.90
13970;DHT22;7057;49.984;8.404;2022-08-02T07:10:45;22.30;99.90
13970;DHT22;7057;49.984;8.404;2022-08-02T07:13:13;22.50;99.90
13970;DHT22;7057;49.984;8.404;2022-08-02T07:15:41;22.70;99.90
13970;DHT22;7057;49.984;8.404;2022-08-02T07:18:08;22.90;99.90
13970;DHT22;7057;49.984;8.404;2022-08-02T07:20:39;22.70;99.90
13970;DHT22;7057;49.984;8.404;2022-08-02T07:23:07;22.80;99.90
13970;DHT22;7057;49.984;8.404;2022-08-02T07:25:34;23.00;99.90
13970;DHT22;7057;49.984;8.404;2022-08-02T07:28:02;22.90;99.90
13970;DHT22;7057;49.984;8.404;2022-08-02T07:30:29;23.00;99.90
13970;DHT22;7057;49.984;8.404;2022-08-02T07:32:59;23.30;99.90
13970;DHT22;7057;49.984;8.404;2022-08-02T07:35:26;23.50;99.90
13970;DHT22;7057;49.984;8.404;2022-08-02T07:37:53;23.80;99.90
13970;DHT22;7057;49.984;8.404;2022-08-02T07:40:21;23.90;99.90
13970;DHT22;7057;49.984;8.404;2022-08-02T07:42:51;24.10;99.90
13970;DHT22;7057;49.984;8.404;2022-08-02T07:45:19;24.10;99.90
13970;DHT22;7057;49.984;8.404;2022-08-02T07:47:46;24.30;99.90
13970;DHT22;7057;49.984;8.404;2022-08-02T07:50:16;24.20;99.90
13970;DHT22;7057;49.984;8.404;2022-08-02T07:52:44;24.30;99.90
13970;DHT22;7057;49.984;8.404;2022-08-02T07:55:12;24.50;99.90
13970;DHT22;7057;49.984;8.404;2022-08-02T07:57:41;24.40;99.90
13970;DHT22;7057;49.984;8.404;2022-08-02T08:00:09;24.20;99.90
13970;DHT22;7057;49.984;8.404;2022-08-02T08:02:36;24.30;99.90
13970;DHT22;7057;49.984;8.404;2022-08-02T08:05:04;24.30;99.90
13970;DHT22;7057;49.984;8.404;2022-08-02T08:07:33;24.50;99.90
13970;DHT22;7057;49.984;8.404;2022-08-02T08:10:01;24.60;99.90
13970;DHT22;7057;49.984;8.404;2022-08-02T08:12:29;24.80;99.90
13970;DHT22;7057;49.984;8.404;2022-08-02T08:14:56;24.80;99.90
13970;DHT22;7057;49.984;8.404;2022-08-02T08:17:23;24.90;99.90
13970;DHT22;7057;49.984;8.404;2022-08-02T08:19:51;24.90;99.90
13970;DHT22;7057;49.984;8.404;2022-08-02T08:22:18;25.00;99.90
13970;DHT22;7057;49.984;8.404;2022-08-02T08:24:47;25.10;99.90
13970;DHT22;7057;49.984;8.404;2022-08-02T08:27:14;25.20;99.90
13970;DHT22;7057;49.984;8.404;2022-08-02T08:29:42;25.30;99.90
13970;DHT22;7057;49.984;8.404;2022-08-02T08:32:09;25.40;99.90
13970;DHT22;7057;49.984;8.404;2022-08-02T08:34:38;25.40;99.90
13970;DHT22;7057;49.984;8.404;2022-08-02T08:37:05;25.30;99.90
13970;DHT22;7057;49.984;8.404;2022-08-02T08:39:32;25.10;99.90
13970;DHT22;7057;49.984;8.404;2022-08-02T08:42:01;24.90;99.90
13970;DHT22;7057;49.984;8.404;2022-08-02T08:44:32;24.80;99.90
13970;DHT22;7057;49.984;8.404;2022-08-02T08:47:00;25.10;99.90
13970;DHT22;7057;49.984;8.404;2022-08-02T08:49:31;25.40;99.90
13970;DHT22;7057;49.984;8.404;2022-08-02T08:52:03;25.70;99.90
13970;DHT22;7057;49.984;8.404;2022-08-02T08:54:32;25.80;99.90
13970;DHT22;7057;49.984;8.404;2022-08-02T08:57:01;26.00;99.90
13970;DHT22;7057;49.984;8.404;2022-08-02T08:59:30;26.30;99.90
13970;DHT22;7057;49.984;8.404;2022-08-02T09:01:57;26.50;99.90
13970;DHT22;7057;49.984;8.404;2022-08-02T09:04:24;26.60;99.90
13970;DHT22;7057;49.984;8.404;2022-08-02T09:06:51;26.50;99.90
13970;DHT22;7057;49.984;8.404;2022-08-02T09:09:20;26.60;99.90
13970;DHT22;7057;49.984;8.404;2022-08-02T09:11:47;26.70;99.90
13970;DHT22;7057;49.984;8.404;2022-08-02T09:14:26;26.70;99.90
13970;DHT22;7057;49.984;8.404;2022-08-02T09:17:05;26.80;99.90
13970;DHT22;7057;49.984;8.404;2022-08-02T09:19:33;26.60;99.90
13970;DHT22;7057;49.984;8.404;2022-08-02T09:22:03;26.60;99.90
13970;DHT22;7057;49.984;8.404;2022-08-02T09:24:42;26.70;99.90
13970;DHT22;7057;49.984;8.404;2022-08-02T09:27:11;26.80;99.90
13970;DHT22;7057;49.984;8.404;2022-08-02T09:29:40;26.90;99.90
13970;DHT22;7057;49.984;8.404;2022-08-02T09:32:11;26.70;99.90
13970;DHT22;7057;49.984;8.404;2022-08-02T09:34:48;26.70;99.90
13970;DHT22;7057;49.984;8.404;2022-08-02T09:37:23;26.60;99.90
13970;DHT22;7057;49.984;8.404;2022-08-02T09:39:51;26.60;99.90
13970;DHT22;7057;49.984;8.404;2022-08-02T09:42:18;27.00;99.90
13970;DHT22;7057;49.984;8.404;2022-08-02T09:44:54;26.90;99.90
13970;DHT22;7057;49.984;8.404;2022-08-02T09:47:22;26.90;99.90
13970;DHT22;7057;49.984;8.404;2022-08-02T09:49:50;26.80;99.90
13970;DHT22;7057;49.984;8.404;2022-08-02T09:52:21;26.60;99.90
13970;DHT22;7057;49.984;8.404;2022-08-02T09:54:49;26.80;99.90
13970;DHT22;7057;49.984;8.404;2022-08-02T09:57:25;26.80;99.90
13970;DHT22;7057;49.984;8.404;2022-08-02T09:59:56;26.50;99.90
13970;DHT22;7057;49.984;8.404;2022-08-02T10:02:24;26.70;99.90
13970;DHT22;7057;49.984;8.404;2022-08-02T10:04:51;26.70;99.90
13970;DHT22;7057;49.984;8.404;2022-08-02T10:07:19;26.90;99.90
13970;DHT22;7057;49.984;8.404;2022-08-02T10:09:46;27.00;99.90
13970;DHT22;7057;49.984;8.404;2022-08-02T10:12:14;27.20;99.90
13970;DHT22;7057;49.984;8.404;2022-08-02T10:14:41;27.20;99.90
13970;DHT22;7057;49.984;8.404;2022-08-02T10:17:11;27.20;99.90
13970;DHT22;7057;49.984;8.404;2022-08-02T10:19:38;27.40;99.90
13970;DHT22;7057;49.984;8.404;2022-08-02T10:22:09;27.10;99.90
13970;DHT22;7057;49.984;8.404;2022-08-02T10:24:37;27.10;99.90
13970;DHT22;7057;49.984;8.404;2022-08-02T10:27:06;27.40;99.90
13970;DHT22;7057;49.984;8.404;2022-08-02T10:29:38;27.30;99.90
13970;DHT22;7057;49.984;8.404;2022-08-02T10:32:09;27.40;99.90
13970;DHT22;7057;49.984;8.404;2022-08-02T10:34:42;27.70;99.90
13970;DHT22;7057;49.984;8.404;2022-08-02T10:37:10;27.60;99.90
13970;DHT22;7057;49.984;8.404;2022-08-02T10:39:39;27.70;99.90
13970;DHT22;7057;49.984;8.404;2022-08-02T10:42:07;27.90;99.90
13970;DHT22;7057;49.984;8.404;2022-08-02T10:44:35;28.00;99.90
13970;DHT22;7057;49.984;8.404;2022-08-02T10:47:20;28.30;99.90
13970;DHT22;7057;49.984;8.404;2022-08-02T10:49:50;27.80;99.90
13970;DHT22;7057;49.984;8.404;2022-08-02T10:52:18;28.00;99.90
13970;DHT22;7057;49.984;8.404;2022-08-02T10:54:54;28.20;99.90
13970;DHT22;7057;49.984;8.404;2022-08-02T10:57:23;28.30;99.90
13970;DHT22;7057;49.984;8.404;2022-08-02T10:59:54;28.30;99.90
13970;DHT22;7057;49.984;8.404;2022-08-02T11:02:36;28.00;99.90
13970;DHT22;7057;49.984;8.404;2022-08-02T11:05:08;28.20;99.90
13970;DHT22;7057;49.984;8.404;2022-08-02T11:07:37;28.40;99.90
13970;DHT22;7057;49.984;8.404;2022-08-02T11:10:31;28.10;99.90
13970;DHT22;7057;49.984;8.404;2022-08-02T11:13:04;28.20;99.90
13970;DHT22;7057;49.984;8.404;2022-08-02T11:15:47;28.00;99.90
13970;DHT22;7057;49.984;8.404;2022-08-02T11:18:15;28.10;99.90
13970;DHT22;7057;49.984;8.404;2022-08-02T11:20:44;28.40;99.90
13970;DHT22;7057;49.984;8.404;2022-08-02T11:23:34;28.60;99.90
13970;DHT22;7057;49.984;8.404;2022-08-02T11:26:02;28.50;99.90
13970;DHT22;7057;49.984;8.404;2022-08-02T11:28:30;28.50;99.90
13970;DHT22;7057;49.984;8.404;2022-08-02T11:30:59;28.70;99.90
13970;DHT22;7057;49.984;8.404;2022-08-02T11:33:31;28.60;99.90
13970;DHT22;7057;49.984;8.404;2022-08-02T11:36:05;28.50;99.90
13970;DHT22;7057;49.984;8.404;2022-08-02T11:38:32;28.60;99.90
13970;DHT22;7057;49.984;8.404;2022-08-02T11:40:59;28.70;99.90
13970;DHT22;7057;49.984;8.404;2022-08-02T11:43:28;28.70;99.90
13970;DHT22;7057;49.984;8.404;2022-08-02T11:45:56;28.50;99.90
13970;DHT22;7057;49.984;8.404;2022-08-02T11:48:34;28.70;99.90
13970;DHT22;7057;49.984;8.404;2022-08-02T11:51:07;28.70;99.90
13970;DHT22;7057;49.984;8.404;2022-08-02T11:53:46;28.50;99.90
13970;DHT22;7057;49.984;8.404;2022-08-02T11:56:14;28.50;99.90
13970;DHT22;7057;49.984;8.404;2022-08-02T11:58:59;28.70;99.90
13970;DHT22;7057;49.984;8.404;2022-08-02T12:01:26;29.10;99.90
13970;DHT22;7057;49.984;8.404;2022-08-02T12:03:55;29.30;99.90
13970;DHT22;7057;49.984;8.404;2022-08-02T12:06:27;29.30;99.90
13970;DHT22;7057;49.984;8.404;2022-08-02T12:08:59;28.90;99.40
13970;DHT22;7057;49.984;8.404;2022-08-02T12:11:28;28.80;99.90
13970;DHT22;7057;49.984;8.404;2022-08-02T12:13:55;28.90;99.90
13970;DHT22;7057;49.984;8.404;2022-08-02T12:16:23;29.10;99.30
13970;DHT22;7057;49.984;8.404;2022-08-02T12:19:08;29.40;99.30
13970;DHT22;7057;49.984;8.404;2022-08-02T12:21:46;29.50;99.80
13970;DHT22;7057;49.984;8.404;2022-08-02T12:24:25;29.70;99.20
13970;DHT22;7057;49.984;8.404;2022-08-02T12:26:53;29.70;98.20
13970;DHT22;7057;49.984;8.404;2022-08-02T12:29:29;29.90;98.10
13970;DHT22;7057;49.984;8.404;2022-08-02T12:31:56;30.10;98.50
13970;DHT22;7057;49.984;8.404;2022-08-02T12:34:24;29.80;98.10
13970;DHT22;7057;49.984;8.404;2022-08-02T12:37:00;29.80;99.20
13970;DHT22;7057;49.984;8.404;2022-08-02T12:39:37;29.60;98.10
13970;DHT22;7057;49.984;8.404;2022-08-02T12:42:05;29.80;99.10
13970;DHT22;7057;49.984;8.404;2022-08-02T12:44:35;29.60;97.20
13970;DHT22;7057;49.984;8.404;2022-08-02T12:47:05;29.70;99.60
13970;DHT22;7057;49.984;8.404;2022-08-02T12:49:32;29.90;97.50
13970;DHT22;7057;49.984;8.404;2022-08-02T12:52:02;29.60;97.30
13970;DHT22;7057;49.984;8.404;2022-08-02T12:54:43;29.20;96.90
13970;DHT22;7057;49.984;8.404;2022-08-02T12:57:11;29.20;97.60
13970;DHT22;7057;49.984;8.404;2022-08-02T12:59:40;29.60;97.40
13970;DHT22;7057;49.984;8.404;2022-08-02T13:02:10;29.90;98.90
13970;DHT22;7057;49.984;8.404;2022-08-02T13:04:39;29.70;97.20
13970;DHT22;7057;49.984;8.404;2022-08-02T13:07:08;29.80;98.50
13970;DHT22;7057;49.984;8.404;2022-08-02T13:09:36;30.00;96.40
13970;DHT22;7057;49.984;8.404;2022-08-02T13:12:03;30.20;96.20
13970;DHT22;7057;49.984;8.404;2022-08-02T13:14:32;30.10;96.40
13970;DHT22;7057;49.984;8.404;2022-08-02T13:16:59;29.70;95.60
13970;DHT22;7057;49.984;8.404;2022-08-02T13:19:27;29.80;97.60
13970;DHT22;7057;49.984;8.404;2022-08-02T13:21:54;30.10;96.80
13970;DHT22;7057;49.984;8.404;2022-08-02T13:24:22;30.20;96.80
13970;DHT22;7057;49.984;8.404;2022-08-02T13:26:49;30.40;97.10
13970;DHT22;7057;49.984;8.404;2022-08-02T13:29:16;30.50;96.50
13970;DHT22;7057;49.984;8.404;2022-08-02T13:31:44;30.40;95.80
13970;DHT22;7057;49.984;8.404;2022-08-02T13:34:11;30.50;96.30
13970;DHT22;7057;49.984;8.404;2022-08-02T13:36:38;30.50;94.80
13970;DHT22;7057;49.984;8.404;2022-08-02T13:39:05;30.70;96.50
13970;DHT22;7057;49.984;8.404;2022-08-02T13:41:35;30.40;95.40
13970;DHT22;7057;49.984;8.404;2022-08-02T13:44:02;30.30;96.50
13970;DHT22;7057;49.984;8.404;2022-08-02T13:46:29;30.40;95.20
13970;DHT22;7057;49.984;8.404;2022-08-02T13:48:57;30.50;95.60
13970;DHT22;7057;49.984;8.404;2022-08-02T13:51:24;30.50;95.30
13970;DHT22;7057;49.984;8.404;2022-08-02T13:53:51;30.70;95.50
13970;DHT22;7057;49.984;8.404;2022-08-02T13:56:18;30.90;95.60
13970;DHT22;7057;49.984;8.404;2022-08-02T13:58:46;31.00;94.70
13970;DHT22;7057;49.984;8.404;2022-08-02T14:01:14;31.10;94.60
13970;DHT22;7057;49.984;8.404;2022-08-02T14:03:41;31.30;95.10
13970;DHT22;7057;49.984;8.404;2022-08-02T14:06:08;31.20;93.80
13970;DHT22;7057;49.984;8.404;2022-08-02T14:08:35;31.20;92.70
13970;DHT22;7057;49.984;8.404;2022-08-02T14:11:03;31.00;92.40
13970;DHT22;7057;49.984;8.404;2022-08-02T14:13:31;30.70;93.30
13970;DHT22;7057;49.984;8.404;2022-08-02T14:16:00;30.70;93.40
13970;DHT22;7057;49.984;8.404;2022-08-02T14:18:27;31.00;92.90
13970;DHT22;7057;49.984;8.404;2022-08-02T14:20:54;30.90;91.70
13970;DHT22;7057;49.984;8.404;2022-08-02T14:23:21;30.70;92.30
13970;DHT22;7057;49.984;8.404;2022-08-02T14:25:48;30.80;93.20
13970;DHT22;7057;49.984;8.404;2022-08-02T14:28:16;30.60;92.70
13970;DHT22;7057;49.984;8.404;2022-08-02T14:30:43;30.70;92.70
13970;DHT22;7057;49.984;8.404;2022-08-02T14:33:12;30.80;92.30
13970;DHT22;7057;49.984;8.404;2022-08-02T14:35:39;31.00;93.00
13970;DHT22;7057;49.984;8.404;2022-08-02T14:38:06;31.00;91.90
13970;DHT22;7057;49.984;8.404;2022-08-02T14:40:33;30.90;93.30
13970;DHT22;7057;49.984;8.404;2022-08-02T14:43:01;30.70;93.50
13970;DHT22;7057;49.984;8.404;2022-08-02T14:45:28;30.70;92.50
13970;DHT22;7057;49.984;8.404;2022-08-02T14:47:56;30.90;92.20
13970;DHT22;7057;49.984;8.404;2022-08-02T14:50:25;31.20;90.80
13970;DHT22;7057;49.984;8.404;2022-08-02T14:52:52;31.00;91.40
13970;DHT22;7057;49.984;8.404;2022-08-02T14:55:19;31.00;90.00
13970;DHT22;7057;49.984;8.404;2022-08-02T14:57:47;30.80;90.20
13970;DHT22;7057;49.984;8.404;2022-08-02T15:00:16;30.70;90.60
13970;DHT22;7057;49.984;8.404;2022-08-02T15:02:43;30.80;89.60
13970;DHT22;7057;49.984;8.404;2022-08-02T15:05:10;30.90;90.30
13970;DHT22;7057;49.984;8.404;2022-08-02T15:07:39;31.10;91.60
13970;DHT22;7057;49.984;8.404;2022-08-02T15:10:06;31.00;90.30
13970;DHT22;7057;49.984;8.404;2022-08-02T15:12:34;30.90;92.20
13970;DHT22;7057;49.984;8.404;2022-08-02T15:15:01;31.00;89.80
13970;DHT22;7057;49.984;8.404;2022-08-02T15:17:28;31.20;89.70
13970;DHT22;7057;49.984;8.404;2022-08-02T15:19:56;31.00;90.80
13970;DHT22;7057;49.984;8.404;2022-08-02T15:22:23;31.10;91.20
13970;DHT22;7057;49.984;8.404;2022-08-02T15:24:52;31.10;90.50
13970;DHT22;7057;49.984;8.404;2022-08-02T15:27:19;31.20;91.00
13970;DHT22;7057;49.984;8.404;2022-08-02T15:29:47;31.40;90.10
13970;DHT22;7057;49.984;8.404;2022-08-02T15:32:15;31.50;90.60
13970;DHT22;7057;49.984;8.404;2022-08-02T15:34:44;31.30;88.50
13970;DHT22;7057;49.984;8.404;2022-08-02T15:37:11;31.00;88.20
13970;DHT22;7057;49.984;8.404;2022-08-02T15:39:38;31.20;88.40
13970;DHT22;7057;49.984;8.404;2022-08-02T15:42:07;31.30;90.30
13970;DHT22;7057;49.984;8.404;2022-08-02T15:44:34;31.10;90.60
13970;DHT22;7057;49.984;8.404;2022-08-02T15:47:04;30.40;90.90
13970;DHT22;7057;49.984;8.404;2022-08-02T15:49:31;30.50;92.00
13970;DHT22;7057;49.984;8.404;2022-08-02T15:51:59;30.60;89.80
13970;DHT22;7057;49.984;8.404;2022-08-02T15:54:26;30.50;90.60
13970;DHT22;7057;49.984;8.404;2022-08-02T15:56:53;30.70;90.70